Wan Hai 266 — 9VDB5 — position and weather

sailwx.info

Track history (hours):
 
Tides and Currents Weather Stations Pressure Air Temp Water Temp Dewpoint Dewpoint Depression Visibility Wind Speed Wind Dir Waves Ship Positions

Wan Hai 266

Last reported at 2017-Nov-20 00:26 UTC. Time now 2017-Nov-24 14:47 UTC.
Position N 22°27' E 113°54'.

Length 198 m; draft 8.1 m.

Type: Ship. MMSI: 564489000.

Date/timePositionNaut miles runAvg speedWind from/ knotsBaromVisibWave heightAir tempDewpointWater temp
2017-Nov-20 00:26N 22°27' E 113°54'0 0.0
2017-Nov-19 23:59N 22°27' E 113°54'0 0.0
2017-Nov-19 23:29N 22°27' E 113°54'0 0.0
2017-Nov-19 22:59N 22°27' E 113°54'0 0.0
2017-Nov-19 22:29N 22°27' E 113°54'0 0.0
2017-Nov-19 21:59N 22°27' E 113°54'0 0.0
2017-Nov-19 21:29N 22°27' E 113°54'0 0.0
2017-Nov-19 20:59N 22°27' E 113°54'0 0.0
2017-Nov-19 20:29N 22°27' E 113°54'0 0.0
2017-Nov-19 19:59N 22°27' E 113°54'0 0.0
2017-Nov-19 19:29N 22°27' E 113°54'0 0.0
2017-Nov-19 18:59N 22°27' E 113°54'0 0.0
2017-Nov-19 18:29N 22°27' E 113°54'0 0.0
2017-Nov-19 17:59N 22°27' E 113°54'0 0.0
2017-Nov-19 17:29N 22°27' E 113°54'0 0.0
2017-Nov-19 16:59N 22°27' E 113°54'0 0.0
2017-Nov-19 16:29N 22°27' E 113°54'0 0.0
2017-Nov-19 15:53N 22°27' E 113°54'0 1.2
2017-Nov-19 15:30N 22°27' E 113°54'3 6.9
2017-Nov-19 15:00N 22°24' E 113°54'611.2
2017-Nov-19 14:31N 22°21' E 113°59'6 0.3
2017-Nov-18 21:11N 22°19' E 114°05'1 5.1
2017-Nov-18 21:00N 22°19' E 114°06'2 0.2
2017-Nov-18 10:19N 22°20' E 114°07'2 5.1
2017-Nov-18 09:55N 22°18' E 114°06'710.0
2017-Nov-18 09:14N 22°13' E 114°10'2 8.2
2017-Nov-18 09:00N 22°11' E 114°11'8 0.4
2017-Nov-17 10:37N 22°05' E 114°17'214.6
2017-Nov-17 10:29N 22°06' E 114°19'715.2
2017-Nov-17 10:00N 22°07' E 114°27'918.4
2017-Nov-17 09:30N 22°08' E 114°37'918.3
2017-Nov-17 09:00N 22°09' E 114°47'918.4
2017-Nov-17 08:30N 22°10' E 114°56'918.2
2017-Nov-17 07:59N 22°12' E 115°06'917.9
2017-Nov-17 07:28N 22°13' E 115°16'1918.0
2017-Nov-17 06:24N 22°14' E 115°37'23517.7
2017-Nov-16 17:05N 22°31' E 119°51'116.8
2017-Nov-16 17:00N 22°31' E 119°52'917.6
2017-Nov-16 16:30N 22°32' E 120°02'917.7
2017-Nov-16 16:01N 22°33' E 120°11'814.3
2017-Nov-16 15:29N 22°33' E 120°19'1 2.2
2017-Nov-16 15:00N 22°34' E 120°18'0 0.0
2017-Nov-16 14:29N 22°34' E 120°18'0 0.0
2017-Nov-16 13:59N 22°34' E 120°18'0 0.0
2017-Nov-16 13:26N 22°34' E 120°18'0 0.0
2017-Nov-16 12:56N 22°34' E 120°18'0 0.0
2017-Nov-16 12:29N 22°34' E 120°18'0 0.0
2017-Nov-16 11:59N 22°34' E 120°18'0 0.0
2017-Nov-16 11:26N 22°34' E 120°18'0 0.0
2017-Nov-16 10:53N 22°34' E 120°18'0 0.0
2017-Nov-16 10:29N 22°34' E 120°18'0 0.0
2017-Nov-16 09:59N 22°34' E 120°18'0 0.0
2017-Nov-16 09:23N 22°34' E 120°18'0 0.0
2017-Nov-16 08:50N 22°34' E 120°18'0 0.4
2017-Nov-16 08:31N 22°34' E 120°19'2 3.9
2017-Nov-16 08:00N 22°33' E 120°17'2 4.2
2017-Nov-16 07:30N 22°32' E 120°15'1 2.3
2017-Nov-16 07:00N 22°32' E 120°14'4 8.5
2017-Nov-16 06:30N 22°35' E 120°11'917.5
2017-Nov-16 06:01N 22°43' E 120°07'918.0
2017-Nov-16 05:30N 22°51' E 120°02'  
2017-Nov-12 00:31N 34°53' E 139°25'016.9
2017-Nov-12 00:31N 34°53' E 139°25'816.7
2017-Nov-12 00:00N 34°59' E 139°33'917.4
2017-Nov-11 23:31N 35°04' E 139°41'816.6
2017-Nov-11 23:00N 35°11' E 139°46'611.6
2017-Nov-11 22:30N 35°17' E 139°45'612.4
2017-Nov-11 22:00N 35°23' E 139°42'713.9
2017-Nov-11 21:30N 35°28' E 139°48'611.5
2017-Nov-11 21:00N 35°33' E 139°50'4 4.6
2017-Nov-11 20:03N 35°36' E 139°46'0 0.0
2017-Nov-11 19:57N 35°36' E 139°46'0 0.0
2017-Nov-11 19:27N 35°36' E 139°46'0 0.0
2017-Nov-11 18:51N 35°36' E 139°46'0 0.0
2017-Nov-11 18:30N 35°36' E 139°46'0 0.0
2017-Nov-11 17:42N 35°36' E 139°46'0 0.0
2017-Nov-11 17:27N 35°36' E 139°46'0 0.0
2017-Nov-11 16:21N 35°36' E 139°46'0 0.0
2017-Nov-11 15:57N 35°36' E 139°46'0 0.1
2017-Nov-11 15:27N 35°36' E 139°46'0 0.1
2017-Nov-11 14:45N 35°36' E 139°46'0 0.0
2017-Nov-11 14:27N 35°36' E 139°46'0 0.0
2017-Nov-11 13:39N 35°36' E 139°46'0 0.0
2017-Nov-11 13:27N 35°36' E 139°46'0 0.0
2017-Nov-11 11:03N 35°36' E 139°46'0 0.1
2017-Nov-11 10:57N 35°36' E 139°46'0 0.0
2017-Nov-11 10:28N 35°36' E 139°46'1 2.9
2017-Nov-11 10:00N 35°35' E 139°47'5 9.4
2017-Nov-11 09:30N 35°32' E 139°52'612.1
2017-Nov-11 09:00N 35°27' E 139°48'611.4
2017-Nov-11 08:31N 35°27' E 139°41'0 0.8
2017-Nov-11 08:00N 35°27' E 139°41'0 0.0
2017-Nov-11 07:30N 35°27' E 139°41'0 0.0
2017-Nov-11 07:00N 35°27' E 139°41'0 0.0
2017-Nov-11 06:30N 35°27' E 139°41'0 0.0
2017-Nov-11 05:58N 35°27' E 139°41'0 0.0
2017-Nov-11 05:30N 35°27' E 139°41'0 0.0
2017-Nov-11 04:57N 35°27' E 139°41'0 0.0
2017-Nov-11 04:30N 35°27' E 139°41'0 0.1
2017-Nov-11 04:00N 35°27' E 139°41'0 0.1
2017-Nov-11 03:30N 35°27' E 139°41'0 0.0
2017-Nov-11 03:00N 35°27' E 139°41'0 0.0
2017-Nov-11 02:30N 35°27' E 139°41'0 0.0
2017-Nov-11 02:00N 35°27' E 139°41'0 0.1
2017-Nov-11 01:30N 35°27' E 139°41'0 0.1
2017-Nov-11 01:00N 35°27' E 139°41'0 0.0
2017-Nov-11 00:27N 35°27' E 139°41'0 0.1
2017-Nov-11 00:00N 35°27' E 139°41'0 0.1
2017-Nov-10 23:30N 35°27' E 139°41'0 0.4
2017-Nov-10 23:00N 35°27' E 139°41'2 4.2
2017-Nov-10 22:30N 35°26' E 139°43'3 6.4
2017-Nov-10 22:00N 35°23' E 139°43'611.3
2017-Nov-10 21:30N 35°18' E 139°45'510.9
2017-Nov-10 21:00N 35°12' E 139°47'4 9.0
2017-Nov-10 20:30N 35°08' E 139°47'4 8.6
2017-Nov-10 19:59N 35°03' E 139°46'2 3.4
2017-Nov-10 19:30N 35°04' E 139°44'4 7.6
2017-Nov-10 19:00N 35°01' E 139°41'5 9.2
2017-Nov-10 18:30N 34°58' E 139°37'  
Track history (hours):
 
Tides and Currents Weather Stations Pressure Air Temp Water Temp Dewpoint Dewpoint Depression Visibility Wind Speed Wind Dir Waves Ship Positions

Wan Hai 266

Last reported at 2017-Nov-20 00:26 UTC. Time now 2017-Nov-24 14:47 UTC.
Position N 22°27' E 113°54'.

Length 198 m; draft 8.1 m.

Type: Ship. MMSI: 564489000.

Date/timePositionNaut miles runAvg speedWind from/ knotsBaromVisibWave heightAir tempDewpointWater temp
2017-Nov-20 00:26N 22°27' E 113°54'0 0.0
2017-Nov-19 23:59N 22°27' E 113°54'0 0.0
2017-Nov-19 23:29N 22°27' E 113°54'0 0.0
2017-Nov-19 22:59N 22°27' E 113°54'0 0.0
2017-Nov-19 22:29N 22°27' E 113°54'0 0.0
2017-Nov-19 21:59N 22°27' E 113°54'0 0.0
2017-Nov-19 21:29N 22°27' E 113°54'0 0.0
2017-Nov-19 20:59N 22°27' E 113°54'0 0.0
2017-Nov-19 20:29N 22°27' E 113°54'0 0.0
2017-Nov-19 19:59N 22°27' E 113°54'0 0.0
2017-Nov-19 19:29N 22°27' E 113°54'0 0.0
2017-Nov-19 18:59N 22°27' E 113°54'0 0.0
2017-Nov-19 18:29N 22°27' E 113°54'0 0.0
2017-Nov-19 17:59N 22°27' E 113°54'0 0.0
2017-Nov-19 17:29N 22°27' E 113°54'0 0.0
2017-Nov-19 16:59N 22°27' E 113°54'0 0.0
2017-Nov-19 16:29N 22°27' E 113°54'0 0.0
2017-Nov-19 15:53N 22°27' E 113°54'0 1.2
2017-Nov-19 15:30N 22°27' E 113°54'3 6.9
2017-Nov-19 15:00N 22°24' E 113°54'611.2
2017-Nov-19 14:31N 22°21' E 113°59'6 0.3
2017-Nov-18 21:11N 22°19' E 114°05'1 5.1
2017-Nov-18 21:00N 22°19' E 114°06'2 0.2
2017-Nov-18 10:19N 22°20' E 114°07'2 5.1
2017-Nov-18 09:55N 22°18' E 114°06'710.0
2017-Nov-18 09:14N 22°13' E 114°10'2 8.2
2017-Nov-18 09:00N 22°11' E 114°11'8 0.4
2017-Nov-17 10:37N 22°05' E 114°17'214.6
2017-Nov-17 10:29N 22°06' E 114°19'715.2
2017-Nov-17 10:00N 22°07' E 114°27'918.4
2017-Nov-17 09:30N 22°08' E 114°37'918.3
2017-Nov-17 09:00N 22°09' E 114°47'918.4
2017-Nov-17 08:30N 22°10' E 114°56'918.2
2017-Nov-17 07:59N 22°12' E 115°06'917.9
2017-Nov-17 07:28N 22°13' E 115°16'1918.0
2017-Nov-17 06:24N 22°14' E 115°37'23517.7
2017-Nov-16 17:05N 22°31' E 119°51'116.8
2017-Nov-16 17:00N 22°31' E 119°52'917.6
2017-Nov-16 16:30N 22°32' E 120°02'917.7
2017-Nov-16 16:01N 22°33' E 120°11'814.3
2017-Nov-16 15:29N 22°33' E 120°19'1 2.2
2017-Nov-16 15:00N 22°34' E 120°18'0 0.0
2017-Nov-16 14:29N 22°34' E 120°18'0 0.0
2017-Nov-16 13:59N 22°34' E 120°18'0 0.0
2017-Nov-16 13:26N 22°34' E 120°18'0 0.0
2017-Nov-16 12:56N 22°34' E 120°18'0 0.0
2017-Nov-16 12:29N 22°34' E 120°18'0 0.0
2017-Nov-16 11:59N 22°34' E 120°18'0 0.0
2017-Nov-16 11:26N 22°34' E 120°18'0 0.0
2017-Nov-16 10:53N 22°34' E 120°18'0 0.0
2017-Nov-16 10:29N 22°34' E 120°18'0 0.0
2017-Nov-16 09:59N 22°34' E 120°18'0 0.0
2017-Nov-16 09:23N 22°34' E 120°18'0 0.0
2017-Nov-16 08:50N 22°34' E 120°18'0 0.4
2017-Nov-16 08:31N 22°34' E 120°19'2 3.9
2017-Nov-16 08:00N 22°33' E 120°17'2 4.2
2017-Nov-16 07:30N 22°32' E 120°15'1 2.3
2017-Nov-16 07:00N 22°32' E 120°14'4 8.5
2017-Nov-16 06:30N 22°35' E 120°11'917.5
2017-Nov-16 06:01N 22°43' E 120°07'918.0
2017-Nov-16 05:30N 22°51' E 120°02'  
2017-Nov-12 00:31N 34°53' E 139°25'016.9
2017-Nov-12 00:31N 34°53' E 139°25'816.7
2017-Nov-12 00:00N 34°59' E 139°33'917.4
2017-Nov-11 23:31N 35°04' E 139°41'816.6
2017-Nov-11 23:00N 35°11' E 139°46'611.6
2017-Nov-11 22:30N 35°17' E 139°45'612.4
2017-Nov-11 22:00N 35°23' E 139°42'713.9
2017-Nov-11 21:30N 35°28' E 139°48'611.5
2017-Nov-11 21:00N 35°33' E 139°50'4 4.6
2017-Nov-11 20:03N 35°36' E 139°46'0 0.0
2017-Nov-11 19:57N 35°36' E 139°46'0 0.0
2017-Nov-11 19:27N 35°36' E 139°46'0 0.0
2017-Nov-11 18:51N 35°36' E 139°46'0 0.0
2017-Nov-11 18:30N 35°36' E 139°46'0 0.0
2017-Nov-11 17:42N 35°36' E 139°46'0 0.0
2017-Nov-11 17:27N 35°36' E 139°46'0 0.0
2017-Nov-11 16:21N 35°36' E 139°46'0 0.0
2017-Nov-11 15:57N 35°36' E 139°46'0 0.1
2017-Nov-11 15:27N 35°36' E 139°46'0 0.1
2017-Nov-11 14:45N 35°36' E 139°46'0 0.0
2017-Nov-11 14:27N 35°36' E 139°46'0 0.0
2017-Nov-11 13:39N 35°36' E 139°46'0 0.0
2017-Nov-11 13:27N 35°36' E 139°46'0 0.0
2017-Nov-11 11:03N 35°36' E 139°46'0 0.1
2017-Nov-11 10:57N 35°36' E 139°46'0 0.0
2017-Nov-11 10:28N 35°36' E 139°46'1 2.9
2017-Nov-11 10:00N 35°35' E 139°47'5 9.4
2017-Nov-11 09:30N 35°32' E 139°52'612.1
2017-Nov-11 09:00N 35°27' E 139°48'611.4
2017-Nov-11 08:31N 35°27' E 139°41'0 0.8
2017-Nov-11 08:00N 35°27' E 139°41'0 0.0
2017-Nov-11 07:30N 35°27' E 139°41'0 0.0
2017-Nov-11 07:00N 35°27' E 139°41'0 0.0
2017-Nov-11 06:30N 35°27' E 139°41'0 0.0
2017-Nov-11 05:58N 35°27' E 139°41'0 0.0
2017-Nov-11 05:30N 35°27' E 139°41'0 0.0
2017-Nov-11 04:57N 35°27' E 139°41'0 0.0
2017-Nov-11 04:30N 35°27' E 139°41'0 0.1
2017-Nov-11 04:00N 35°27' E 139°41'0 0.1
2017-Nov-11 03:30N 35°27' E 139°41'0 0.0
2017-Nov-11 03:00N 35°27' E 139°41'0 0.0
2017-Nov-11 02:30N 35°27' E 139°41'0 0.0
2017-Nov-11 02:00N 35°27' E 139°41'0 0.1
2017-Nov-11 01:30N 35°27' E 139°41'0 0.1
2017-Nov-11 01:00N 35°27' E 139°41'0 0.0
2017-Nov-11 00:27N 35°27' E 139°41'0 0.1
2017-Nov-11 00:00N 35°27' E 139°41'0 0.1
2017-Nov-10 23:30N 35°27' E 139°41'0 0.4
2017-Nov-10 23:00N 35°27' E 139°41'2 4.2
2017-Nov-10 22:30N 35°26' E 139°43'3 6.4
2017-Nov-10 22:00N 35°23' E 139°43'611.3
2017-Nov-10 21:30N 35°18' E 139°45'510.9
2017-Nov-10 21:00N 35°12' E 139°47'4 9.0
2017-Nov-10 20:30N 35°08' E 139°47'4 8.6
2017-Nov-10 19:59N 35°03' E 139°46'2 3.4
2017-Nov-10 19:30N 35°04' E 139°44'4 7.6
2017-Nov-10 19:00N 35°01' E 139°41'5 9.2
2017-Nov-10 18:30N 34°58' E 139°37'  

Dump ship's entire track history